Time;durP1;ratioP1;P1;durP2;ratioP2;P2;SDS_P1;SDS_P2;PMS_P1;PMS_P2;Temp;Humidity;BMP_temperature;BMP_pressure;BME280_temperature;BME280_humidity;BME280_pressure;Samples;Min_cycle;Max_cycle;Signal;HPM_P1;HPM_P2
2023/01/15 00:01:42;;;;;;;1.15;0.28;;;;;;;2.99;56.84;99338.56;5059802;28;20085;-69
2023/01/15 00:04:10;;;;;;;5.35;0.57;;;;;;;3.04;56.04;99338.38;5058867;28;20147;-69
2023/01/15 00:06:38;;;;;;;2.05;0.10;;;;;;;3.29;55.43;99351.34;5058271;28;20489;-69
2023/01/15 00:09:07;;;;;;;4.60;0.20;;;;;;;3.11;56.42;99347.63;5062406;28;21787;-70
2023/01/15 00:11:37;;;;;;;5.30;0.30;;;;;;;3.31;56.07;99345.22;5061161;28;20355;-71
2023/01/15 00:14:03;;;;;;;4.95;0.75;;;;;;;3.22;56.04;99339.50;5059624;28;20075;-70
2023/01/15 00:16:29;;;;;;;4.90;0.17;;;;;;;2.51;57.53;99341.78;5062965;28;20775;-70
2023/01/15 00:19:03;;;;;;;3.97;0.25;;;;;;;3.27;56.07;99342.78;5062350;28;20057;-71
2023/01/15 00:21:29;;;;;;;6.72;0.70;;;;;;;3.40;55.60;99338.91;5066594;28;20027;-68
2023/01/15 00:29:28;;;;;;;1.80;0.10;;;;;;;3.13;56.09;99345.81;5076906;27;20125;-70
2023/01/15 00:32:00;;;;;;;1.52;0.35;;;;;;;3.32;55.82;99353.84;5059117;28;20722;-66
2023/01/15 00:34:28;;;;;;;3.28;0.30;;;;;;;3.41;55.48;99353.53;5057067;28;20044;-67
2023/01/15 00:36:57;;;;;;;2.88;0.10;;;;;;;3.40;55.28;99349.22;5077934;28;20042;-67
2023/01/15 00:39:23;;;;;;;7.57;0.30;;;;;;;2.62;57.19;99344.88;5075903;27;20630;-67
2023/01/15 00:41:53;;;;;;;4.18;0.17;;;;;;;3.54;55.01;99344.44;5062608;28;20040;-67
2023/01/15 00:44:19;;;;;;;5.07;0.65;;;;;;;3.54;54.77;99344.44;5060970;28;20517;-66
2023/01/15 00:46:45;;;;;;;3.60;0.30;;;;;;;3.65;54.68;99343.22;5064686;28;20633;-66
2023/01/15 00:49:13;;;;;;;6.30;0.30;;;;;;;3.62;54.62;99356.25;5056326;28;20052;-70
2023/01/15 00:51:39;;;;;;;6.07;0.38;;;;;;;3.36;54.79;99352.84;5061847;28;20031;-69
2023/01/15 00:54:11;;;;;;;2.65;0.43;;;;;;;3.08;55.42;99356.31;5063287;27;20047;-70
2023/01/15 00:56:36;;;;;;;3.13;0.30;;;;;;;2.87;56.11;99360.44;5059803;28;20157;-72
2023/01/15 00:59:07;;;;;;;2.97;0.50;;;;;;;3.41;54.42;99366.44;5058759;28;21695;-66
2023/01/15 01:01:33;;;;;;;2.08;0.52;;;;;;;2.87;55.63;99359.59;5063773;28;20028;-68
2023/01/15 01:04:01;;;;;;;4.60;0.68;;;;;;;3.42;54.24;99362.94;5057439;28;20063;-66
2023/01/15 01:06:29;;;;;;;3.45;0.43;;;;;;;3.48;54.04;99356.72;5063276;28;20032;-77
2023/01/15 01:08:57;;;;;;;9.55;0.30;;;;;;;3.24;54.60;99369.53;5066738;28;20161;-65
2023/01/15 01:11:32;;;;;;;3.38;0.20;;;;;;;3.21;54.41;99374.81;5066219;28;20054;-66
2023/01/15 01:13:59;;;;;;;1.20;0.22;;;;;;;2.91;55.12;99367.19;5057078;28;20087;-70
2023/01/15 01:16:29;;;;;;;12.77;0.30;;;;;;;3.46;53.52;99366.28;5078120;28;20052;-74
2023/01/15 01:18:55;;;;;;;7.07;0.10;;;;;;;3.64;53.34;99370.78;5061734;28;20085;-74
2023/01/15 01:21:21;;;;;;;3.88;0.25;;;;;;;3.31;54.28;99365.03;5061301;28;20039;-72
2023/01/15 01:23:47;;;;;;;6.18;0.30;;;;;;;3.27;53.85;99368.59;5060499;28;20044;-73
2023/01/15 01:26:13;;;;;;;4.03;0.20;;;;;;;3.06;54.45;99371.00;5059570;28;20109;-72
2023/01/15 01:28:39;;;;;;;8.63;0.47;;;;;;;3.48;53.65;99360.16;5047225;28;20580;-71
2023/01/15 01:31:06;;;;;;;5.30;0.20;;;;;;;3.07;54.73;99367.53;5074903;28;20020;-72
2023/01/15 01:33:32;;;;;;;6.65;0.47;;;;;;;3.17;54.15;99365.50;5057535;28;20101;-72
2023/01/15 01:35:57;;;;;;;8.60;1.58;;;;;;;3.12;53.82;99370.81;5060368;28;20431;-72
2023/01/15 01:38:23;;;;;;;3.55;0.30;;;;;;;2.99;54.95;99359.19;5055654;28;20059;-66
2023/01/15 01:40:49;;;;;;;11.88;1.27;;;;;;;3.12;54.29;99350.16;5059826;28;20027;-68
2023/01/15 01:43:28;;;;;;;7.22;1.63;;;;;;;2.95;54.47;99353.28;5048403;27;20044;-70
2023/01/15 01:45:54;;;;;;;10.30;0.80;;;;;;;2.89;54.75;99357.78;5062201;28;20484;-66
2023/01/15 01:48:25;;;;;;;6.65;0.30;;;;;;;2.90;54.53;99365.50;5062298;28;20514;-66
2023/01/15 01:50:56;;;;;;;9.70;0.22;;;;;;;3.27;53.79;99364.28;5052988;28;20062;-63
2023/01/15 01:53:32;;;;;;;6.95;0.50;;;;;;;3.44;53.43;99370.66;5060410;28;20056;-63
2023/01/15 01:55:59;;;;;;;9.95;0.93;;;;;;;3.28;53.26;99357.38;5072611;28;20051;-64
2023/01/15 01:58:36;;;;;;;7.68;1.33;;;;;;;2.85;54.59;99366.56;5050227;28;20107;-63
2023/01/15 02:01:02;;;;;;;8.68;0.40;;;;;;;3.22;53.68;99362.75;5058483;28;20294;-63
2023/01/15 02:03:34;;;;;;;5.63;0.32;;;;;;;3.27;53.42;99366.88;5047253;28;20579;-64
2023/01/15 02:06:04;;;;;;;2.92;0.47;;;;;;;3.22;53.87;99376.50;5058748;28;20485;-63
2023/01/15 02:08:31;;;;;;;4.15;0.40;;;;;;;2.76;55.04;99389.16;5055779;28;20286;-65
2023/01/15 02:10:59;;;;;;;6.72;0.40;;;;;;;2.75;54.76;99376.31;5062973;28;20029;-65
2023/01/15 02:13:42;;;;;;;9.15;0.60;;;;;;;2.98;54.12;99385.91;5050278;28;20787;-65
2023/01/15 02:16:20;;;;;;;8.25;0.35;;;;;;;2.84;54.34;99393.25;5062211;28;20341;-65
2023/01/15 02:19:00;;;;;;;4.85;0.28;;;;;;;3.18;53.49;99386.09;5049680;28;20496;-64
2023/01/15 02:21:41;;;;;;;7.00;0.63;;;;;;;2.88;54.61;99389.66;5061312;28;20115;-64
2023/01/15 02:24:17;;;;;;;7.47;3.08;;;;;;;2.63;55.05;99387.84;5067533;28;20044;-64
2023/01/15 02:27:09;;;;;;;6.75;1.10;;;;;;;2.89;54.38;99391.34;5072832;28;20024;-64
2023/01/15 02:29:43;;;;;;;7.15;0.28;;;;;;;2.72;55.12;99395.31;5060165;28;20129;-64
2023/01/15 02:32:24;;;;;;;5.57;0.45;;;;;;;2.68;54.94;99385.97;5054736;28;20412;-65
2023/01/15 02:35:01;;;;;;;10.15;0.45;;;;;;;2.87;54.07;99380.25;5073609;27;20421;-64
2023/01/15 02:37:34;;;;;;;6.10;0.55;;;;;;;3.13;54.00;99374.22;5058470;28;20777;-63
2023/01/15 02:40:05;;;;;;;6.72;0.82;;;;;;;3.32;53.32;99377.09;5060593;28;20040;-64
2023/01/15 02:42:33;;;;;;;7.68;0.75;;;;;;;3.32;53.19;99384.84;5061208;28;20115;-63
2023/01/15 02:45:04;;;;;;;9.35;0.63;;;;;;;2.84;54.26;99375.16;5060647;28;20035;-63
2023/01/15 02:47:34;;;;;;;7.20;0.50;;;;;;;2.83;54.41;99376.06;5063463;28;20062;-63
2023/01/15 02:50:06;;;;;;;3.92;0.28;;;;;;;3.03;53.73;99370.28;5052403;28;20115;-63
2023/01/15 02:52:43;;;;;;;6.50;0.93;;;;;;;2.77;54.69;99359.88;5059155;28;20655;-62
2023/01/15 02:55:21;;;;;;;12.13;1.15;;;;;;;3.14;53.60;99353.53;5076557;27;20036;-63
2023/01/15 02:57:52;;;;;;;4.35;0.20;;;;;;;2.61;54.70;99353.53;5062016;28;20476;-62
2023/01/15 03:00:22;;;;;;;6.40;0.75;;;;;;;3.03;53.88;99345.31;5071584;27;20064;-62
2023/01/15 03:03:01;;;;;;;4.28;0.22;;;;;;;2.78;54.54;99355.59;5072052;27;20040;-64
2023/01/15 03:05:37;;;;;;;9.32;0.52;;;;;;;3.10;53.99;99354.53;5060198;28;20062;-64
2023/01/15 03:08:06;;;;;;;5.93;0.22;;;;;;;3.32;53.30;99354.69;5037190;28;20409;-64
2023/01/15 03:11:05;;;;;;;8.00;0.60;;;;;;;2.90;54.22;99350.00;5056494;28;20032;-64
2023/01/15 03:13:35;;;;;;;5.38;0.28;;;;;;;2.21;56.06;99354.75;5056404;28;20521;-64
2023/01/15 03:19:22;;;;;;;7.63;0.47;;;;;;;2.69;54.87;99333.50;5060754;27;20055;-63
2023/01/15 03:21:59;;;;;;;4.97;0.80;;;;;;;2.94;53.79;99330.97;5066047;28;20036;-62
2023/01/15 03:24:37;;;;;;;11.60;1.25;;;;;;;3.01;54.05;99330.75;5056923;28;20541;-62
2023/01/15 03:27:04;;;;;;;4.13;0.30;;;;;;;3.00;53.95;99336.81;5058165;28;20051;-63
2023/01/15 03:29:33;;;;;;;10.15;0.47;;;;;;;2.80;54.04;99334.88;5067938;28;20474;-62
2023/01/15 03:31:59;;;;;;;7.38;0.30;;;;;;;2.82;54.11;99330.50;5053447;28;20576;-63
2023/01/15 03:34:35;;;;;;;6.05;0.73;;;;;;;2.86;54.09;99326.94;5050416;28;20122;-62
2023/01/15 03:37:04;;;;;;;3.13;0.28;;;;;;;2.93;54.04;99333.56;5049970;28;20031;-65
2023/01/15 03:39:32;;;;;;;4.53;0.50;;;;;;;2.60;54.44;99320.91;5078513;27;20046;-64
2023/01/15 03:42:10;;;;;;;13.20;1.15;;;;;;;2.72;53.99;99315.34;5056307;28;20537;-65
2023/01/15 03:45:02;;;;;;;3.55;0.60;;;;;;;2.37;54.45;99320.75;5039626;28;20417;-65
2023/01/15 03:47:33;;;;;;;4.63;0.30;;;;;;;2.25;55.10;99307.34;5072920;28;20647;-64
2023/01/15 03:50:03;;;;;;;5.18;0.52;;;;;;;2.96;53.80;99318.84;5057294;28;20508;-63
2023/01/15 03:52:44;;;;;;;4.45;0.30;;;;;;;2.68;53.69;99316.31;5054607;28;20419;-64
2023/01/15 03:55:18;;;;;;;13.73;1.17;;;;;;;2.61;54.01;99296.78;5060555;28;20032;-64
2023/01/15 03:58:01;;;;;;;12.23;0.93;;;;;;;2.68;54.70;99300.00;5055226;28;20044;-64
2023/01/15 04:00:38;;;;;;;5.60;0.65;;;;;;;2.80;53.89;99294.47;5062062;28;20037;-64
2023/01/15 04:03:08;;;;;;;8.40;0.50;;;;;;;2.60;54.94;99289.94;5056536;28;20052;-64
2023/01/15 04:05:36;;;;;;;16.25;2.83;;;;;;;2.66;54.78;99302.63;5067381;28;20703;-65
2023/01/15 04:08:06;;;;;;;5.32;0.68;;;;;;;2.60;54.45;99300.25;5064174;28;20036;-65
2023/01/15 04:10:32;;;;;;;4.80;0.30;;;;;;;2.76;54.44;99296.28;5058023;28;20028;-64
2023/01/15 04:12:59;;;;;;;3.95;0.43;;;;;;;3.01;53.71;99294.63;5055238;28;20067;-65
2023/01/15 04:15:24;;;;;;;7.57;0.30;;;;;;;2.96;53.96;99307.69;5073975;28;20518;-63
2023/01/15 04:17:50;;;;;;;9.50;0.88;;;;;;;3.04;53.71;99290.19;5056462;28;20321;-64
2023/01/15 04:20:19;;;;;;;4.03;0.20;;;;;;;2.91;53.88;99294.06;5061006;28;20832;-65
2023/01/15 04:22:45;;;;;;;6.90;0.43;;;;;;;2.60;54.60;99294.25;5052179;27;20576;-65
2023/01/15 04:25:11;;;;;;;10.45;0.68;;;;;;;2.65;54.74;99293.22;5068429;27;20028;-65
2023/01/15 04:27:39;;;;;;;3.22;0.75;;;;;;;2.68;54.74;99292.25;5057213;28;20043;-64
2023/01/15 04:30:05;;;;;;;6.35;0.47;;;;;;;2.70;53.99;99286.16;5056582;28;20125;-64
2023/01/15 04:32:30;;;;;;;9.40;0.47;;;;;;;2.60;54.53;99274.47;5056756;27;20085;-64
2023/01/15 04:34:56;;;;;;;11.70;0.28;;;;;;;2.84;53.63;99275.38;5056796;28;20028;-63
2023/01/15 04:37:21;;;;;;;6.53;0.45;;;;;;;2.67;53.94;99280.28;5059659;28;20048;-64
2023/01/15 04:39:46;;;;;;;1.67;0.20;;;;;;;2.81;53.48;99283.22;5062543;28;20288;-65
2023/01/15 04:44:57;;;;;;;8.60;0.70;;;;;;;2.87;53.77;99285.59;5058410;28;20547;-66
2023/01/15 04:47:22;;;;;;;1.83;0.35;;;;;;;3.33;52.36;99285.78;5059829;28;20051;-64
2023/01/15 04:49:48;;;;;;;7.20;0.60;;;;;;;3.00;52.85;99283.44;5055516;28;20233;-64
2023/01/15 04:52:14;;;;;;;9.70;1.08;;;;;;;3.38;52.02;99278.72;5033616;28;20028;-64
2023/01/15 04:54:42;;;;;;;4.72;0.35;;;;;;;3.21;52.61;99265.53;5069627;28;20119;-65
2023/01/15 04:57:07;;;;;;;10.75;0.52;;;;;;;3.08;52.90;99276.28;5057157;28;20139;-63
2023/01/15 04:59:33;;;;;;;5.97;0.55;;;;;;;2.79;53.03;99285.00;5059743;28;20038;-64
2023/01/15 05:01:58;;;;;;;9.48;0.25;;;;;;;3.07;52.60;99273.75;5055536;28;20615;-64
2023/01/15 05:04:27;;;;;;;5.65;1.00;;;;;;;2.57;53.48;99262.50;5059172;28;20084;-64
2023/01/15 05:06:57;;;;;;;2.67;0.32;;;;;;;2.17;53.87;99269.81;5059796;28;20195;-64
2023/01/15 05:09:25;;;;;;;6.85;0.35;;;;;;;2.99;52.17;99268.84;5061479;28;20056;-65
2023/01/15 05:11:53;;;;;;;11.30;1.45;;;;;;;2.83;52.46;99270.28;5058695;28;20020;-67
2023/01/15 05:14:20;;;;;;;4.88;0.22;;;;;;;2.60;52.83;99263.28;5056051;28;20100;-65
2023/01/15 05:16:46;;;;;;;5.03;0.40;;;;;;;2.33;53.85;99264.16;5058394;28;20581;-67
2023/01/15 05:19:12;;;;;;;4.93;0.50;;;;;;;3.13;52.00;99268.38;5058114;28;20140;-69
2023/01/15 05:21:42;;;;;;;10.05;1.10;;;;;;;2.80;53.03;99270.38;5066309;28;20032;-67
2023/01/15 05:24:13;;;;;;;12.95;0.98;;;;;;;2.34;53.76;99270.97;5058964;27;20920;-68
2023/01/15 05:26:39;;;;;;;3.92;0.30;;;;;;;2.39;53.87;99260.50;5062003;28;20041;-75
2023/01/15 05:29:05;;;;;;;12.85;0.50;;;;;;;2.06;53.42;99270.13;5080631;28;20054;-67
2023/01/15 05:31:32;;;;;;;11.05;0.35;;;;;;;2.64;52.64;99262.28;5070083;28;20036;-68
2023/01/15 05:34:00;;;;;;;11.75;0.85;;;;;;;2.30;53.13;99271.13;5057131;28;20504;-65
2023/01/15 05:36:29;;;;;;;8.27;0.90;;;;;;;2.72;52.54;99280.94;5060068;28;20036;-66
2023/01/15 05:38:58;;;;;;;7.90;1.45;;;;;;;2.44;52.62;99296.47;5057100;28;20115;-64
2023/01/15 05:44:10;;;;;;;4.30;0.30;;;;;;;2.50;52.33;99278.22;5055070;28;20060;-67
2023/01/15 05:46:38;;;;;;;3.72;0.40;;;;;;;2.48;52.46;99280.00;5058564;28;20462;-66
2023/01/15 05:49:06;;;;;;;9.65;0.73;;;;;;;2.35;52.88;99275.25;5060193;28;20049;-65
2023/01/15 05:51:37;;;;;;;6.22;0.60;;;;;;;2.59;52.38;99277.09;5063803;28;20431;-65
2023/01/15 05:54:04;;;;;;;3.58;0.25;;;;;;;2.86;51.80;99283.06;5061097;28;20447;-66
2023/01/15 05:56:29;;;;;;;9.77;0.40;;;;;;;2.07;53.26;99280.41;5061292;28;20048;-66
2023/01/15 05:58:55;;;;;;;6.18;0.80;;;;;;;2.85;52.00;99276.25;5064966;28;20078;-66
2023/01/15 06:01:22;;;;;;;6.43;0.95;;;;;;;2.40;53.05;99272.53;5061238;28;20039;-66
2023/01/15 06:03:48;;;;;;;5.40;1.00;;;;;;;2.59;52.79;99262.44;5055220;28;20367;-64
2023/01/15 06:06:16;;;;;;;6.05;0.30;;;;;;;2.33;53.43;99265.84;5079506;28;20035;-64
2023/01/15 06:08:46;;;;;;;6.05;0.82;;;;;;;2.21;53.83;99266.25;5062399;28;20047;-73
2023/01/15 06:11:12;;;;;;;11.73;0.40;;;;;;;2.42;53.70;99260.44;5060709;28;20186;-74
2023/01/15 06:13:38;;;;;;;3.58;0.40;;;;;;;2.12;53.98;99257.91;5059871;28;20067;-75
2023/01/15 06:16:09;;;;;;;6.57;0.30;;;;;;;2.18;54.04;99251.72;5064615;28;20664;-73
2023/01/15 06:18:35;;;;;;;2.65;0.25;;;;;;;1.89;54.88;99258.63;5059353;28;20044;-72
2023/01/15 06:21:13;;;;;;;10.32;0.75;;;;;;;1.97;54.63;99252.38;5063243;28;20036;-72
2023/01/15 06:23:42;;;;;;;3.60;0.43;;;;;;;2.13;54.46;99258.75;5059342;28;20101;-65
2023/01/15 06:26:16;;;;;;;3.65;0.50;;;;;;;1.85;54.16;99259.59;5061520;28;20080;-64
2023/01/15 06:28:46;;;;;;;3.00;0.47;;;;;;;2.40;53.65;99256.19;5061833;27;20058;-64
2023/01/15 06:31:17;;;;;;;5.07;1.30;;;;;;;1.76;54.91;99265.00;5061476;28;20036;-64
2023/01/15 06:33:43;;;;;;;6.30;0.77;;;;;;;2.28;53.65;99250.53;5060540;28;20103;-65
2023/01/15 06:36:12;;;;;;;9.05;0.55;;;;;;;2.01;54.47;99253.97;5060199;28;20042;-64
2023/01/15 06:38:40;;;;;;;12.15;0.52;;;;;;;2.21;53.73;99243.88;5058706;28;20572;-65
2023/01/15 06:49:32;;;;;;;2.63;1.10;;;;;;;1.85;54.06;99238.13;5062498;28;20561;-65
2023/01/15 06:51:57;;;;;;;4.13;0.57;;;;;;;1.69;54.84;99240.34;5052085;28;20317;-65
2023/01/15 06:54:23;;;;;;;9.20;0.75;;;;;;;2.17;53.19;99244.88;5061769;28;20105;-64
2023/01/15 06:56:51;;;;;;;5.90;0.43;;;;;;;2.06;53.30;99236.63;5061250;28;20038;-65
2023/01/15 06:59:17;;;;;;;2.25;0.20;;;;;;;1.50;54.69;99243.41;5060382;28;20145;-64
2023/01/15 07:01:42;;;;;;;7.20;0.93;;;;;;;1.51;54.90;99242.56;5076459;28;20036;-65
2023/01/15 07:04:11;;;;;;;6.63;0.65;;;;;;;1.50;54.82;99243.41;5048863;28;20071;-65
2023/01/15 07:06:36;;;;;;;3.50;0.28;;;;;;;1.84;53.85;99231.28;5060909;28;20028;-64
2023/01/15 07:09:04;;;;;;;2.08;0.73;;;;;;;1.47;54.43;99216.94;5051375;28;20498;-64
2023/01/15 07:11:32;;;;;;;7.55;0.30;;;;;;;1.75;53.91;99221.25;5062178;28;20135;-64
2023/01/15 07:14:07;;;;;;;8.82;0.17;;;;;;;1.47;54.44;99219.50;5072971;27;20395;-65
2023/01/15 07:16:38;;;;;;;2.63;0.43;;;;;;;1.06;55.74;99217.19;5061414;28;20105;-65
2023/01/15 07:19:03;;;;;;;5.40;0.50;;;;;;;1.90;53.55;99221.63;5077580;27;20346;-63
2023/01/15 07:21:29;;;;;;;10.30;0.70;;;;;;;1.52;54.63;99225.34;5061210;28;20040;-65
2023/01/15 07:23:58;;;;;;;7.55;1.00;;;;;;;1.54;54.06;99221.00;5072355;27;20056;-65
2023/01/15 07:26:23;;;;;;;9.55;0.35;;;;;;;1.87;53.33;99239.78;5062684;28;20284;-64
2023/01/15 07:28:51;;;;;;;4.70;0.30;;;;;;;1.04;54.66;99234.38;5060658;28;20048;-65
2023/01/15 07:31:19;;;;;;;5.20;0.25;;;;;;;1.91;53.22;99240.53;5064616;28;20039;-67
2023/01/15 07:33:44;;;;;;;9.68;0.60;;;;;;;1.96;53.22;99230.09;5061927;28;20091;-67
2023/01/15 07:36:12;;;;;;;13.68;0.60;;;;;;;1.39;54.62;99229.97;5063371;28;20573;-67
2023/01/15 07:38:40;;;;;;;2.08;0.35;;;;;;;1.46;54.22;99220.38;5058662;28;20865;-66
2023/01/15 07:52:04;;;;;;;8.93;0.30;;;;;;;1.78;53.30;99214.31;5060668;28;20024;-66
2023/01/15 07:54:32;;;;;;;9.40;0.68;;;;;;;1.52;54.63;99210.75;5062112;28;20054;-67
2023/01/15 07:56:57;;;;;;;5.03;0.75;;;;;;;1.69;54.16;99212.84;5072375;28;20040;-67
2023/01/15 07:59:25;;;;;;;9.63;1.00;;;;;;;1.92;52.92;99222.44;5058215;28;20044;-67
2023/01/15 08:01:50;;;;;;;5.25;0.63;;;;;;;1.52;54.44;99220.22;5063294;28;20531;-67
2023/01/15 08:04:18;;;;;;;7.80;0.40;;;;;;;1.62;54.08;99215.66;5061619;28;20462;-66
2023/01/15 08:06:44;;;;;;;7.97;0.80;;;;;;;1.88;53.39;99228.56;5060269;28;20530;-67
2023/01/15 08:09:09;;;;;;;4.05;0.45;;;;;;;1.28;54.63;99224.28;5055398;28;20074;-66
2023/01/15 08:17:03;;;;;;;6.00;1.00;;;;;;;1.44;54.36;99217.88;5057821;28;20557;-66
2023/01/15 08:19:31;;;;;;;13.90;0.55;;;;;;;1.38;54.03;99223.16;5061589;28;20632;-67
2023/01/15 08:22:00;;;;;;;12.18;1.63;;;;;;;1.80;53.17;99225.41;5058170;28;20415;-67
2023/01/15 08:24:30;;;;;;;4.50;0.70;;;;;;;2.47;51.03;99211.28;5071311;28;20043;-67
2023/01/15 08:26:59;;;;;;;9.45;0.25;;;;;;;2.05;51.93;99199.72;5054731;28;20131;-67
2023/01/15 08:29:26;;;;;;;5.28;0.70;;;;;;;2.20;51.05;99213.88;5060123;28;20060;-66
2023/01/15 08:31:54;;;;;;;7.20;0.70;;;;;;;1.99;51.38;99214.53;5056634;28;20367;-66
2023/01/15 08:34:24;;;;;;;6.75;0.50;;;;;;;1.11;52.91;99220.47;5057456;28;20202;-66
2023/01/15 08:36:58;;;;;;;4.22;0.20;;;;;;;2.15;50.99;99226.03;5057432;28;20583;-66
2023/01/15 08:39:24;;;;;;;1.95;0.30;;;;;;;1.94;51.25;99218.09;5057075;27;20508;-67
2023/01/15 08:41:49;;;;;;;5.10;0.98;;;;;;;2.14;50.84;99214.06;5060777;28;20348;-65
2023/01/15 08:44:15;;;;;;;10.45;1.10;;;;;;;2.72;50.17;99226.78;5055121;28;20040;-66
2023/01/15 08:46:44;;;;;;;12.40;0.60;;;;;;;1.92;51.46;99221.59;5056194;28;20052;-67
2023/01/15 08:49:09;;;;;;;2.90;0.20;;;;;;;2.02;51.24;99217.00;5058852;28;20255;-67
2023/01/15 08:51:38;;;;;;;5.65;0.50;;;;;;;2.22;50.54;99217.25;5075952;28;20118;-66
2023/01/15 08:54:03;;;;;;;8.07;0.60;;;;;;;1.69;52.04;99214.56;5055865;27;20408;-66
2023/01/15 08:56:29;;;;;;;6.78;0.60;;;;;;;2.13;51.10;99202.03;5061089;28;20567;-67
2023/01/15 08:58:54;;;;;;;12.93;0.73;;;;;;;1.78;51.14;99185.13;5056214;28;20609;-65
2023/01/15 09:01:20;;;;;;;7.18;0.22;;;;;;;2.31;50.11;99191.16;5057866;28;20062;-66
2023/01/15 09:03:45;;;;;;;8.90;0.38;;;;;;;2.54;48.47;99187.81;5075420;28;20076;-66
2023/01/15 09:06:12;;;;;;;11.90;1.02;;;;;;;2.69;47.79;99165.81;5060540;28;20039;-67
2023/01/15 09:08:37;;;;;;;5.68;0.93;;;;;;;2.63;47.46;99175.50;5057174;28;20117;-67
2023/01/15 09:11:05;;;;;;;8.05;0.45;;;;;;;2.10;47.54;99173.78;5057402;28;20028;-66
2023/01/15 09:13:31;;;;;;;7.63;0.63;;;;;;;3.18;46.05;99179.56;5045318;28;20055;-66
2023/01/15 09:16:01;;;;;;;1.92;0.30;;;;;;;3.02;46.50;99180.97;5057240;28;20040;-68
2023/01/15 09:18:27;;;;;;;6.80;0.40;;;;;;;2.50;46.89;99180.22;5072263;28;20047;-67
2023/01/15 09:20:53;;;;;;;5.18;0.30;;;;;;;2.89;46.64;99188.34;5056956;28;20105;-70
2023/01/15 09:23:18;;;;;;;4.35;0.60;;;;;;;3.36;45.04;99184.97;5061350;28;20043;-68
2023/01/15 09:25:54;;;;;;;4.35;1.00;;;;;;;2.69;46.08;99176.13;5063169;28;20558;-68
2023/01/15 09:28:20;;;;;;;1.02;0.30;;;;;;;2.34;47.34;99164.44;5055500;28;20055;-68
2023/01/15 09:30:48;;;;;;;1.05;0.10;;;;;;;3.10;45.81;99171.22;5059459;28;20529;-66
2023/01/15 09:33:19;;;;;;;9.35;0.90;;;;;;;3.70;44.85;99171.63;5057997;28;20337;-67
2023/01/15 09:35:44;;;;;;;3.33;0.40;;;;;;;3.70;44.59;99181.94;5058052;28;20408;-68
2023/01/15 09:38:14;;;;;;;5.45;0.38;;;;;;;3.62;44.76;99172.81;5057165;28;20050;-66
2023/01/15 09:41:05;;;;;;;12.73;0.55;;;;;;;3.57;45.64;99178.97;5055917;28;20036;-67
2023/01/15 09:44:02;;;;;;;6.75;0.22;;;;;;;3.58;45.69;99187.56;5059315;28;20806;-67
2023/01/15 09:46:38;;;;;;;1.42;0.25;;;;;;;3.21;46.13;99172.59;5076683;28;20044;-68
2023/01/15 09:49:15;;;;;;;3.00;0.60;;;;;;;2.58;46.58;99188.56;5043790;28;20285;-69
2023/01/15 09:51:48;;;;;;;1.90;0.38;;;;;;;1.60;49.84;99207.13;5060862;28;20044;-66
2023/01/15 09:54:34;;;;;;;3.00;0.17;;;;;;;1.17;51.45;99203.16;5056057;28;20048;-66
2023/01/15 09:57:00;;;;;;;3.20;0.17;;;;;;;1.10;52.02;99203.34;5054612;28;20040;-67
2023/01/15 09:59:34;;;;;;;3.80;0.50;;;;;;;0.93;51.91;99190.09;5060969;28;20056;-66
2023/01/15 10:02:09;;;;;;;4.00;0.10;;;;;;;1.13;52.57;99202.41;5059318;28;20130;-66
2023/01/15 10:04:42;;;;;;;3.53;0.30;;;;;;;1.35;51.55;99197.50;5057231;28;20045;-66
2023/01/15 10:07:17;;;;;;;5.00;0.30;;;;;;;2.40;49.64;99176.25;5059013;28;20032;-66
2023/01/15 10:09:54;;;;;;;2.08;0.90;;;;;;;3.07;47.80;99186.84;5060855;28;20040;-66
2023/01/15 10:12:35;;;;;;;4.63;0.43;;;;;;;2.63;48.41;99172.91;5061334;28;20043;-66
2023/01/15 10:15:33;;;;;;;3.92;0.35;;;;;;;1.50;50.58;99162.75;5058336;28;20275;-66
2023/01/15 10:17:59;;;;;;;16.80;1.33;;;;;;;1.77;50.68;99184.25;5058925;28;20120;-66
2023/01/15 10:20:48;;;;;;;2.42;0.47;;;;;;;1.92;50.82;99175.22;5059921;28;20558;-66
2023/01/15 10:23:48;;;;;;;8.90;0.70;;;;;;;2.21;50.18;99168.31;5058683;28;20503;-66
2023/01/15 10:26:27;;;;;;;3.25;0.28;;;;;;;2.00;50.73;99172.38;5057894;28;20074;-66
2023/01/15 10:29:13;;;;;;;2.92;0.30;;;;;;;2.56;49.88;99156.81;5057728;28;20083;-67
2023/01/15 10:31:49;;;;;;;3.38;0.40;;;;;;;2.38;50.37;99168.59;5059945;28;20037;-67
2023/01/15 10:34:27;;;;;;;5.88;0.47;;;;;;;2.23;51.29;99163.94;5056984;27;20035;-67
2023/01/15 10:37:19;;;;;;;5.30;0.40;;;;;;;2.63;50.76;99160.03;5057316;28;20059;-67
2023/01/15 10:39:53;;;;;;;3.33;0.30;;;;;;;2.84;49.87;99153.25;5061250;28;20043;-66
2023/01/15 10:42:57;;;;;;;3.08;0.88;;;;;;;2.17;51.46;99146.94;5074958;27;20052;-65
2023/01/15 10:45:38;;;;;;;6.68;0.57;;;;;;;3.29;49.16;99142.19;5059525;28;20080;-66
2023/01/15 10:48:07;;;;;;;3.30;0.37;;;;;;;2.78;49.90;99141.44;5035443;28;20464;-66
2023/01/15 10:50:40;;;;;;;2.50;0.45;;;;;;;2.73;50.33;99135.56;5056726;28;20040;-66
2023/01/15 10:53:24;;;;;;;4.40;0.20;;;;;;;2.75;50.44;99129.47;5062399;28;20036;-66
2023/01/15 10:55:54;;;;;;;3.83;0.17;;;;;;;2.02;51.50;99116.50;5054389;28;20085;-67
2023/01/15 10:58:32;;;;;;;5.75;0.30;;;;;;;1.96;52.31;99112.41;5076300;27;20122;-66
2023/01/15 11:01:07;;;;;;;3.38;0.30;;;;;;;2.08;52.08;99111.16;5057990;28;20161;-66
2023/01/15 11:03:39;;;;;;;1.27;0.10;;;;;;;2.70;50.91;99125.38;5058476;28;20097;-68
2023/01/15 11:06:13;;;;;;;7.18;1.08;;;;;;;2.25;52.21;99108.84;5059805;28;20081;-66
2023/01/15 11:08:42;;;;;;;0.93;0.25;;;;;;;2.59;51.40;99089.63;5068385;27;20044;-65
2023/01/15 11:20:43;;;;;;;2.30;0.10;;;;;;;2.55;51.71;99095.78;5059867;28;20499;-66
2023/01/15 11:23:19;;;;;;;8.25;1.20;;;;;;;2.82;51.60;99114.59;5054737;28;20161;-66
2023/01/15 11:25:54;;;;;;;7.68;0.43;;;;;;;2.79;51.16;99094.06;5060209;28;20606;-66
2023/01/15 11:28:30;;;;;;;1.85;0.45;;;;;;;2.35;52.14;99107.66;5056508;28;20580;-66
2023/01/15 11:30:56;;;;;;;8.80;0.10;;;;;;;2.94;50.46;99082.38;5057786;28;20105;-66
2023/01/15 11:33:24;;;;;;;7.05;0.47;;;;;;;3.10;49.81;99088.63;5049920;27;20329;-65
2023/01/15 11:35:57;;;;;;;2.78;0.38;;;;;;;3.40;49.52;99083.22;5071937;28;20288;-65
2023/01/15 11:38:41;;;;;;;5.20;0.60;;;;;;;2.65;51.22;99092.00;5061433;28;20082;-65
2023/01/15 11:41:18;;;;;;;1.35;0.50;;;;;;;2.98;50.93;99078.78;5069194;28;20020;-66
2023/01/15 11:52:16;;;;;;;10.73;0.38;;;;;;;2.50;52.17;99056.44;5055573;28;20734;-66
2023/01/15 11:54:46;;;;;;;3.85;0.30;;;;;;;2.72;51.64;99079.72;5054022;28;20028;-66
2023/01/15 11:57:26;;;;;;;5.43;0.40;;;;;;;2.46;52.55;99045.38;5056823;28;21303;-67
2023/01/15 11:59:54;;;;;;;8.85;0.63;;;;;;;2.90;51.40;99044.66;5057434;28;20039;-66
2023/01/15 12:02:42;;;;;;;11.13;0.57;;;;;;;2.83;51.23;99071.59;5048582;28;21432;-66
2023/01/15 12:05:17;;;;;;;3.88;0.20;;;;;;;2.59;51.88;99061.25;5058996;28;20055;-67
2023/01/15 12:07:48;;;;;;;8.23;0.40;;;;;;;2.68;52.70;99066.09;5051345;28;20354;-66
2023/01/15 12:13:14;;;;;;;6.82;0.30;;;;;;;2.44;52.63;99052.31;5058045;28;20042;-66
2023/01/15 12:15:58;;;;;;;4.15;0.85;;;;;;;2.05;54.77;99032.22;5060224;28;20040;-66
2023/01/15 12:18:30;;;;;;;8.90;0.50;;;;;;;2.43;54.23;99044.66;5058244;28;20062;-66
2023/01/15 12:21:20;;;;;;;8.10;0.30;;;;;;;2.48;54.04;99037.59;5057044;28;20036;-66
2023/01/15 12:24:01;;;;;;;3.28;0.88;;;;;;;2.03;55.75;99071.81;5059545;28;20441;-67
2023/01/15 12:26:33;;;;;;;3.47;0.38;;;;;;;1.84;56.82;99059.53;5057539;28;20437;-66
2023/01/15 12:29:39;;;;;;;3.92;0.52;;;;;;;2.00;57.00;99061.59;5054146;28;20043;-66
2023/01/15 12:32:15;;;;;;;7.43;1.33;;;;;;;2.26;56.89;99082.16;5038130;28;20066;-66
2023/01/15 12:35:06;;;;;;;4.75;0.80;;;;;;;2.01;58.13;99078.75;5056757;28;20032;-66
2023/01/15 12:37:52;;;;;;;9.20;0.85;;;;;;;1.98;58.32;99073.72;5057038;28;22406;-66
2023/01/15 12:40:27;;;;;;;7.72;1.20;;;;;;;1.78;59.79;99082.91;5061158;28;20043;-65
2023/01/15 12:45:48;;;;;;;6.43;0.32;;;;;;;0.61;63.09;99106.94;5058145;28;20035;-66
2023/01/15 12:48:39;;;;;;;3.42;0.40;;;;;;;1.37;62.20;99092.72;5040552;28;20044;-65
2023/01/15 12:51:16;;;;;;;3.47;0.30;;;;;;;1.43;61.72;99104.63;5055103;28;20043;-65
2023/01/15 12:53:51;;;;;;;8.63;1.75;;;;;;;1.44;62.33;99111.44;5057568;28;20100;-66
2023/01/15 12:56:28;;;;;;;7.28;0.55;;;;;;;1.84;61.26;99108.50;5057818;28;20085;-66
2023/01/15 12:58:59;;;;;;;6.55;0.82;;;;;;;1.64;61.75;99111.69;5057156;28;20596;-66
2023/01/15 13:01:35;;;;;;;6.22;0.82;;;;;;;1.54;62.10;99109.44;5073508;28;20031;-66
2023/01/15 13:04:11;;;;;;;3.88;0.52;;;;;;;1.98;60.26;99114.94;5061023;28;20134;-66